South Arkansas Regional At Goodwin Field
KELD : now visible

Airfield :











YOU CAN JOIN US ON...

 
LOGIN :

Register | Disclaimer

   EN    FR    IT 

 









Legend :    VFR   Marginal VFR   IFR   Intensive IFR   Very Intensive IFR
Visi :
Ceiling :
>= 8 km
>= 3000ft
5 to 8 km
1000 to 3000 ft
1500m to 5 km
500 to 1000 ft
800 to 1500m
200 to 500 ft
< 800m
< 200 ft
Symbols :   Thunderstorms  Fog  Heavy snow  Heavy precipitations  Wind > 20 kt






- Airport Elevation : 277 ft
- IATA code : ELD


KELD - South Arkansas Regional At Goodwin Field

CURRENT METAR :
  • 201053Z AUTO 00000KT 6SM BR OVC090 19/19 A3007 RMK AO2 SLP179 T01890189

EXPIRED METARs :
  • 200953Z AUTO 00000KT 4SM BR SCT065 OVC085 18/18 A3006 RMK AO2 SLP175 T01830183
  • 200910Z AUTO 00000KT 3SM BR FEW006 18/18 A3005 RMK AO2 T01830183
  • 200903Z AUTO 00000KT 2 1/2SM BR FEW006 18/18 A3005 RMK AO2 T01830183
  • 200853Z AUTO 00000KT 1/4SM FG VV006 18/18 A3004 RMK AO2 SLP170 T01830183 55000
  • 200841Z AUTO 00000KT 1 3/4SM BR CLR 19/19 A3004 RMK AO2 T01890189
  • 200824Z AUTO 00000KT 3SM BR CLR 18/18 A3004 RMK AO2 T01830183

TAF KELD
Valid from the 20 at 10:00 until the 21 at 06:00 UTC


201019Z 2010/2106 00000KT 4SM BR SCT070 OVC090
TEMPO 2010/2012 1/2SM FG VV006
FM201200 00000KT 6SM BR BKN025
FM201500 16005KT P6SM BKN035
FM210000 00000KT P6SM BKN250
KZFW FIR / North America



MET'MAP, your aeronautical weather chart ! - Copyright ORBIFLY December 2007 - Disclaimer

ORBIFLY MET'MAP TEAM :

Programming & Development : Alexandra Zaïnal
Concept & original design : Baudouin d'Aumeries
Assistance for programming : Marc-Olivier Méhu
Technical & hardware support : Manuel Goepfert

Contact : metmap@orbifly.com




SOURCES & CREDITS :

   NOAA       Earth
Advisory